sensor_id;sensor_type;location;lat;lon;timestamp;temperature;humidity
56727;DHT22;42609;52.700;6.236;2023-04-25T00:02:13;7.00;99.90
56727;DHT22;42609;52.700;6.236;2023-04-25T00:04:39;7.10;99.90
56727;DHT22;42609;52.700;6.236;2023-04-25T00:07:05;7.00;99.90
56727;DHT22;42609;52.700;6.236;2023-04-25T00:09:31;7.00;99.90
56727;DHT22;42609;52.700;6.236;2023-04-25T00:11:57;7.00;99.90
56727;DHT22;42609;52.700;6.236;2023-04-25T00:14:22;6.90;99.90
56727;DHT22;42609;52.700;6.236;2023-04-25T00:16:48;6.90;99.90
56727;DHT22;42609;52.700;6.236;2023-04-25T00:19:14;6.90;99.90
56727;DHT22;42609;52.700;6.236;2023-04-25T00:21:39;6.80;99.90
56727;DHT22;42609;52.700;6.236;2023-04-25T00:24:12;6.80;99.90
56727;DHT22;42609;52.700;6.236;2023-04-25T00:26:38;6.70;99.90
56727;DHT22;42609;52.700;6.236;2023-04-25T00:29:03;6.70;99.90
56727;DHT22;42609;52.700;6.236;2023-04-25T00:31:30;6.70;99.90
56727;DHT22;42609;52.700;6.236;2023-04-25T00:33:55;6.60;99.90
56727;DHT22;42609;52.700;6.236;2023-04-25T00:36:21;6.60;99.90
56727;DHT22;42609;52.700;6.236;2023-04-25T00:38:47;6.60;99.90
56727;DHT22;42609;52.700;6.236;2023-04-25T00:41:12;6.60;99.90
56727;DHT22;42609;52.700;6.236;2023-04-25T00:43:39;6.50;99.90
56727;DHT22;42609;52.700;6.236;2023-04-25T00:46:05;6.50;99.90
56727;DHT22;42609;52.700;6.236;2023-04-25T00:48:31;6.50;99.90
56727;DHT22;42609;52.700;6.236;2023-04-25T00:50:58;6.50;99.90
56727;DHT22;42609;52.700;6.236;2023-04-25T00:53:26;6.50;99.90
56727;DHT22;42609;52.700;6.236;2023-04-25T00:55:53;6.50;99.90
56727;DHT22;42609;52.700;6.236;2023-04-25T00:58:22;6.50;99.90
56727;DHT22;42609;52.700;6.236;2023-04-25T01:00:49;6.50;99.90
56727;DHT22;42609;52.700;6.236;2023-04-25T01:03:16;6.60;99.90
56727;DHT22;42609;52.700;6.236;2023-04-25T01:05:43;6.50;99.90
56727;DHT22;42609;52.700;6.236;2023-04-25T01:08:09;6.50;99.90
56727;DHT22;42609;52.700;6.236;2023-04-25T01:10:36;6.50;99.90
56727;DHT22;42609;52.700;6.236;2023-04-25T01:13:02;6.50;99.90
56727;DHT22;42609;52.700;6.236;2023-04-25T01:15:27;6.50;99.90
56727;DHT22;42609;52.700;6.236;2023-04-25T01:17:57;6.50;99.90
56727;DHT22;42609;52.700;6.236;2023-04-25T01:20:24;6.60;99.90
56727;DHT22;42609;52.700;6.236;2023-04-25T01:22:51;6.50;99.90
56727;DHT22;42609;52.700;6.236;2023-04-25T01:25:19;6.50;99.90
56727;DHT22;42609;52.700;6.236;2023-04-25T01:27:45;6.50;99.90
56727;DHT22;42609;52.700;6.236;2023-04-25T01:30:11;6.50;99.90
56727;DHT22;42609;52.700;6.236;2023-04-25T01:32:37;6.50;99.90
56727;DHT22;42609;52.700;6.236;2023-04-25T01:35:10;6.40;99.90
56727;DHT22;42609;52.700;6.236;2023-04-25T01:37:40;6.40;99.90
56727;DHT22;42609;52.700;6.236;2023-04-25T01:40:07;6.50;99.90
56727;DHT22;42609;52.700;6.236;2023-04-25T01:42:34;6.40;99.90
56727;DHT22;42609;52.700;6.236;2023-04-25T01:45:01;6.40;99.90
56727;DHT22;42609;52.700;6.236;2023-04-25T01:47:27;6.50;99.90
56727;DHT22;42609;52.700;6.236;2023-04-25T01:49:53;6.50;99.90
56727;DHT22;42609;52.700;6.236;2023-04-25T01:52:18;6.50;99.90
56727;DHT22;42609;52.700;6.236;2023-04-25T01:54:44;6.50;99.90
56727;DHT22;42609;52.700;6.236;2023-04-25T01:57:13;6.50;99.90
56727;DHT22;42609;52.700;6.236;2023-04-25T01:59:39;6.50;99.90
56727;DHT22;42609;52.700;6.236;2023-04-25T02:02:05;6.50;99.90
56727;DHT22;42609;52.700;6.236;2023-04-25T02:04:31;6.50;99.90
56727;DHT22;42609;52.700;6.236;2023-04-25T02:06:56;6.50;99.90
56727;DHT22;42609;52.700;6.236;2023-04-25T02:09:22;6.50;99.90
56727;DHT22;42609;52.700;6.236;2023-04-25T02:11:48;6.50;99.90
56727;DHT22;42609;52.700;6.236;2023-04-25T02:14:14;6.50;99.90
56727;DHT22;42609;52.700;6.236;2023-04-25T02:16:40;6.40;99.90
56727;DHT22;42609;52.700;6.236;2023-04-25T02:19:08;6.50;99.90
56727;DHT22;42609;52.700;6.236;2023-04-25T02:21:34;6.50;99.90
56727;DHT22;42609;52.700;6.236;2023-04-25T02:24:01;6.60;99.90
56727;DHT22;42609;52.700;6.236;2023-04-25T02:26:27;6.60;99.90
56727;DHT22;42609;52.700;6.236;2023-04-25T02:28:52;6.60;99.90
56727;DHT22;42609;52.700;6.236;2023-04-25T02:31:18;6.60;99.90
56727;DHT22;42609;52.700;6.236;2023-04-25T02:33:44;6.60;99.90
56727;DHT22;42609;52.700;6.236;2023-04-25T02:36:10;6.60;99.90
56727;DHT22;42609;52.700;6.236;2023-04-25T02:38:38;6.60;99.90
56727;DHT22;42609;52.700;6.236;2023-04-25T02:41:04;6.50;99.90
56727;DHT22;42609;52.700;6.236;2023-04-25T02:43:30;6.60;99.90
56727;DHT22;42609;52.700;6.236;2023-04-25T02:45:55;6.50;99.90
56727;DHT22;42609;52.700;6.236;2023-04-25T02:48:21;6.50;99.90
56727;DHT22;42609;52.700;6.236;2023-04-25T02:50:46;6.50;99.90
56727;DHT22;42609;52.700;6.236;2023-04-25T02:53:12;6.50;99.90
56727;DHT22;42609;52.700;6.236;2023-04-25T02:55:38;6.50;99.90
56727;DHT22;42609;52.700;6.236;2023-04-25T02:58:04;6.50;99.90
56727;DHT22;42609;52.700;6.236;2023-04-25T03:00:29;6.50;99.90
56727;DHT22;42609;52.700;6.236;2023-04-25T03:02:55;6.50;99.90
56727;DHT22;42609;52.700;6.236;2023-04-25T03:05:21;6.50;99.90
56727;DHT22;42609;52.700;6.236;2023-04-25T03:07:46;6.50;99.90
56727;DHT22;42609;52.700;6.236;2023-04-25T03:10:12;6.50;99.90
56727;DHT22;42609;52.700;6.236;2023-04-25T03:12:38;6.50;99.90
56727;DHT22;42609;52.700;6.236;2023-04-25T03:15:07;6.50;99.90
56727;DHT22;42609;52.700;6.236;2023-04-25T03:17:32;6.50;99.90
56727;DHT22;42609;52.700;6.236;2023-04-25T03:19:58;6.40;99.90
56727;DHT22;42609;52.700;6.236;2023-04-25T03:22:24;6.40;99.90
56727;DHT22;42609;52.700;6.236;2023-04-25T03:24:50;6.40;99.90
56727;DHT22;42609;52.700;6.236;2023-04-25T03:27:16;6.40;99.90
56727;DHT22;42609;52.700;6.236;2023-04-25T03:29:42;6.40;99.90
56727;DHT22;42609;52.700;6.236;2023-04-25T03:32:07;6.40;99.90
56727;DHT22;42609;52.700;6.236;2023-04-25T03:34:33;6.40;99.90
56727;DHT22;42609;52.700;6.236;2023-04-25T03:37:01;6.40;99.90
56727;DHT22;42609;52.700;6.236;2023-04-25T03:39:27;6.30;99.90
56727;DHT22;42609;52.700;6.236;2023-04-25T03:41:52;6.40;99.90
56727;DHT22;42609;52.700;6.236;2023-04-25T03:44:18;6.40;99.90
56727;DHT22;42609;52.700;6.236;2023-04-25T03:46:43;6.40;99.90
56727;DHT22;42609;52.700;6.236;2023-04-25T03:49:09;6.40;99.90
56727;DHT22;42609;52.700;6.236;2023-04-25T03:51:34;6.30;99.90
56727;DHT22;42609;52.700;6.236;2023-04-25T03:54:00;6.30;99.90
56727;DHT22;42609;52.700;6.236;2023-04-25T03:56:26;6.30;99.90
56727;DHT22;42609;52.700;6.236;2023-04-25T03:58:52;6.20;99.90
56727;DHT22;42609;52.700;6.236;2023-04-25T04:01:17;6.20;99.90
56727;DHT22;42609;52.700;6.236;2023-04-25T04:03:43;6.20;99.90
56727;DHT22;42609;52.700;6.236;2023-04-25T04:06:08;6.20;99.90
56727;DHT22;42609;52.700;6.236;2023-04-25T04:08:34;6.20;99.90
56727;DHT22;42609;52.700;6.236;2023-04-25T04:11:00;6.20;99.90
56727;DHT22;42609;52.700;6.236;2023-04-25T04:13:26;6.20;99.90
56727;DHT22;42609;52.700;6.236;2023-04-25T04:15:52;6.10;99.90
56727;DHT22;42609;52.700;6.236;2023-04-25T04:18:18;6.20;99.90
56727;DHT22;42609;52.700;6.236;2023-04-25T04:20:44;6.20;99.90
56727;DHT22;42609;52.700;6.236;2023-04-25T04:23:10;6.20;99.90
56727;DHT22;42609;52.700;6.236;2023-04-25T04:25:39;6.10;99.90
56727;DHT22;42609;52.700;6.236;2023-04-25T04:28:05;6.10;99.90
56727;DHT22;42609;52.700;6.236;2023-04-25T04:30:31;6.10;99.90
56727;DHT22;42609;52.700;6.236;2023-04-25T04:32:59;6.10;99.90
56727;DHT22;42609;52.700;6.236;2023-04-25T04:35:26;6.10;99.90
56727;DHT22;42609;52.700;6.236;2023-04-25T04:37:51;6.20;99.90
56727;DHT22;42609;52.700;6.236;2023-04-25T04:40:17;6.10;99.90
56727;DHT22;42609;52.700;6.236;2023-04-25T04:42:44;6.10;99.90
56727;DHT22;42609;52.700;6.236;2023-04-25T04:45:11;6.10;99.90
56727;DHT22;42609;52.700;6.236;2023-04-25T04:47:38;6.10;99.90
56727;DHT22;42609;52.700;6.236;2023-04-25T04:50:08;6.10;99.90
56727;DHT22;42609;52.700;6.236;2023-04-25T04:52:35;6.00;99.90
56727;DHT22;42609;52.700;6.236;2023-04-25T04:55:01;6.10;99.90
56727;DHT22;42609;52.700;6.236;2023-04-25T04:57:28;6.10;99.90
56727;DHT22;42609;52.700;6.236;2023-04-25T04:59:53;6.10;99.90
56727;DHT22;42609;52.700;6.236;2023-04-25T05:02:19;6.10;99.90
56727;DHT22;42609;52.700;6.236;2023-04-25T05:04:45;6.10;99.90
56727;DHT22;42609;52.700;6.236;2023-04-25T05:07:10;6.20;99.90
56727;DHT22;42609;52.700;6.236;2023-04-25T05:09:36;6.20;99.90
56727;DHT22;42609;52.700;6.236;2023-04-25T05:12:02;6.30;99.90
56727;DHT22;42609;52.700;6.236;2023-04-25T05:14:28;6.30;99.90
56727;DHT22;42609;52.700;6.236;2023-04-25T05:16:53;6.30;99.90
56727;DHT22;42609;52.700;6.236;2023-04-25T05:19:19;6.30;99.90
56727;DHT22;42609;52.700;6.236;2023-04-25T05:21:45;6.40;99.90
56727;DHT22;42609;52.700;6.236;2023-04-25T05:24:10;6.40;99.90
56727;DHT22;42609;52.700;6.236;2023-04-25T05:26:37;6.30;99.90
56727;DHT22;42609;52.700;6.236;2023-04-25T05:29:02;6.30;99.90
56727;DHT22;42609;52.700;6.236;2023-04-25T05:31:28;6.40;99.90
56727;DHT22;42609;52.700;6.236;2023-04-25T05:33:54;6.40;99.90
56727;DHT22;42609;52.700;6.236;2023-04-25T05:36:19;6.60;99.90
56727;DHT22;42609;52.700;6.236;2023-04-25T05:38:45;6.60;99.90
56727;DHT22;42609;52.700;6.236;2023-04-25T05:41:11;6.70;99.90
56727;DHT22;42609;52.700;6.236;2023-04-25T05:43:36;6.90;99.90
56727;DHT22;42609;52.700;6.236;2023-04-25T05:46:02;7.10;99.90
56727;DHT22;42609;52.700;6.236;2023-04-25T05:48:28;7.10;99.90
56727;DHT22;42609;52.700;6.236;2023-04-25T05:50:53;7.20;99.90
56727;DHT22;42609;52.700;6.236;2023-04-25T05:53:20;7.20;99.90
56727;DHT22;42609;52.700;6.236;2023-04-25T05:55:46;7.20;99.90
56727;DHT22;42609;52.700;6.236;2023-04-25T05:58:12;7.20;99.90
56727;DHT22;42609;52.700;6.236;2023-04-25T06:00:37;7.10;99.90
56727;DHT22;42609;52.700;6.236;2023-04-25T06:03:06;7.00;99.90
56727;DHT22;42609;52.700;6.236;2023-04-25T06:05:35;7.10;99.90
56727;DHT22;42609;52.700;6.236;2023-04-25T06:08:00;7.10;99.90
56727;DHT22;42609;52.700;6.236;2023-04-25T06:10:26;7.10;99.90
56727;DHT22;42609;52.700;6.236;2023-04-25T06:12:52;7.10;99.90
56727;DHT22;42609;52.700;6.236;2023-04-25T06:15:17;7.10;99.90
56727;DHT22;42609;52.700;6.236;2023-04-25T06:17:43;7.20;99.90
56727;DHT22;42609;52.700;6.236;2023-04-25T06:20:09;7.20;99.90
56727;DHT22;42609;52.700;6.236;2023-04-25T06:22:35;7.30;99.90
56727;DHT22;42609;52.700;6.236;2023-04-25T06:25:00;7.30;99.90
56727;DHT22;42609;52.700;6.236;2023-04-25T06:27:28;7.40;99.90
56727;DHT22;42609;52.700;6.236;2023-04-25T06:29:53;7.30;99.90
56727;DHT22;42609;52.700;6.236;2023-04-25T06:32:19;7.30;99.90
56727;DHT22;42609;52.700;6.236;2023-04-25T06:34:44;7.30;99.90
56727;DHT22;42609;52.700;6.236;2023-04-25T06:37:10;7.30;99.90
56727;DHT22;42609;52.700;6.236;2023-04-25T06:39:36;7.40;99.90
56727;DHT22;42609;52.700;6.236;2023-04-25T06:42:04;7.60;99.90
56727;DHT22;42609;52.700;6.236;2023-04-25T06:44:30;7.60;99.90
56727;DHT22;42609;52.700;6.236;2023-04-25T06:46:56;7.70;99.90
56727;DHT22;42609;52.700;6.236;2023-04-25T06:49:21;7.80;99.90
56727;DHT22;42609;52.700;6.236;2023-04-25T06:51:47;7.80;99.90
56727;DHT22;42609;52.700;6.236;2023-04-25T06:54:13;7.80;99.90
56727;DHT22;42609;52.700;6.236;2023-04-25T06:56:39;8.00;99.90
56727;DHT22;42609;52.700;6.236;2023-04-25T06:59:04;8.20;99.90
56727;DHT22;42609;52.700;6.236;2023-04-25T07:01:30;8.20;99.90
56727;DHT22;42609;52.700;6.236;2023-04-25T07:03:55;8.30;99.90
56727;DHT22;42609;52.700;6.236;2023-04-25T07:06:21;8.50;99.90
56727;DHT22;42609;52.700;6.236;2023-04-25T07:08:47;8.60;99.90
56727;DHT22;42609;52.700;6.236;2023-04-25T07:11:12;8.70;99.90
56727;DHT22;42609;52.700;6.236;2023-04-25T07:13:38;8.70;99.90
56727;DHT22;42609;52.700;6.236;2023-04-25T07:16:04;8.60;99.90
56727;DHT22;42609;52.700;6.236;2023-04-25T07:18:30;8.70;99.90
56727;DHT22;42609;52.700;6.236;2023-04-25T07:20:55;8.70;99.90
56727;DHT22;42609;52.700;6.236;2023-04-25T07:23:21;8.70;99.90
56727;DHT22;42609;52.700;6.236;2023-04-25T07:25:47;8.80;99.90
56727;DHT22;42609;52.700;6.236;2023-04-25T07:28:12;8.80;99.90
56727;DHT22;42609;52.700;6.236;2023-04-25T07:30:38;8.80;99.90
56727;DHT22;42609;52.700;6.236;2023-04-25T07:33:03;8.90;99.90
56727;DHT22;42609;52.700;6.236;2023-04-25T07:35:29;9.00;99.90
56727;DHT22;42609;52.700;6.236;2023-04-25T07:37:55;9.10;99.90
56727;DHT22;42609;52.700;6.236;2023-04-25T07:40:21;9.30;99.90
56727;DHT22;42609;52.700;6.236;2023-04-25T07:42:46;9.30;99.90
56727;DHT22;42609;52.700;6.236;2023-04-25T07:45:12;9.20;99.90
56727;DHT22;42609;52.700;6.236;2023-04-25T07:47:37;9.20;99.90
56727;DHT22;42609;52.700;6.236;2023-04-25T07:50:04;9.30;99.90
56727;DHT22;42609;52.700;6.236;2023-04-25T07:52:30;9.20;99.90
56727;DHT22;42609;52.700;6.236;2023-04-25T07:54:55;9.40;99.90
56727;DHT22;42609;52.700;6.236;2023-04-25T07:57:22;9.40;99.90
56727;DHT22;42609;52.700;6.236;2023-04-25T07:59:49;9.20;99.90
56727;DHT22;42609;52.700;6.236;2023-04-25T08:02:15;9.00;99.90
56727;DHT22;42609;52.700;6.236;2023-04-25T08:04:40;9.10;99.90
56727;DHT22;42609;52.700;6.236;2023-04-25T08:07:06;9.30;99.90
56727;DHT22;42609;52.700;6.236;2023-04-25T08:09:32;9.60;99.90
56727;DHT22;42609;52.700;6.236;2023-04-25T08:12:01;9.50;99.90
56727;DHT22;42609;52.700;6.236;2023-04-25T08:14:27;9.30;99.90
56727;DHT22;42609;52.700;6.236;2023-04-25T08:16:54;8.70;99.90
56727;DHT22;42609;52.700;6.236;2023-04-25T08:19:19;8.40;99.90
56727;DHT22;42609;52.700;6.236;2023-04-25T08:21:45;8.10;99.90
56727;DHT22;42609;52.700;6.236;2023-04-25T08:24:11;7.60;99.90
56727;DHT22;42609;52.700;6.236;2023-04-25T08:26:36;7.50;99.90
56727;DHT22;42609;52.700;6.236;2023-04-25T08:29:03;7.60;99.90
56727;DHT22;42609;52.700;6.236;2023-04-25T08:31:29;7.70;99.90
56727;DHT22;42609;52.700;6.236;2023-04-25T08:33:55;7.90;99.90
56727;DHT22;42609;52.700;6.236;2023-04-25T08:36:21;8.10;99.90
56727;DHT22;42609;52.700;6.236;2023-04-25T08:38:46;8.20;99.90
56727;DHT22;42609;52.700;6.236;2023-04-25T08:41:13;8.30;99.90
56727;DHT22;42609;52.700;6.236;2023-04-25T08:43:42;8.20;99.90
56727;DHT22;42609;52.700;6.236;2023-04-25T08:46:08;8.20;99.90
56727;DHT22;42609;52.700;6.236;2023-04-25T08:48:33;8.10;99.90
56727;DHT22;42609;52.700;6.236;2023-04-25T08:51:02;8.30;99.90
56727;DHT22;42609;52.700;6.236;2023-04-25T08:53:30;8.50;99.90
56727;DHT22;42609;52.700;6.236;2023-04-25T08:55:57;8.80;99.90
56727;DHT22;42609;52.700;6.236;2023-04-25T08:58:23;9.00;99.90
56727;DHT22;42609;52.700;6.236;2023-04-25T09:00:50;9.20;99.90
56727;DHT22;42609;52.700;6.236;2023-04-25T09:03:19;9.40;99.90
56727;DHT22;42609;52.700;6.236;2023-04-25T09:05:45;9.80;99.90
56727;DHT22;42609;52.700;6.236;2023-04-25T09:08:10;9.90;99.90
56727;DHT22;42609;52.700;6.236;2023-04-25T09:10:36;10.20;99.90
56727;DHT22;42609;52.700;6.236;2023-04-25T09:15:32;10.40;99.90
56727;DHT22;42609;52.700;6.236;2023-04-25T09:17:59;10.20;99.90
56727;DHT22;42609;52.700;6.236;2023-04-25T09:20:25;9.90;99.90
56727;DHT22;42609;52.700;6.236;2023-04-25T09:23:11;9.90;99.90
56727;DHT22;42609;52.700;6.236;2023-04-25T09:25:37;9.70;99.90
56727;DHT22;42609;52.700;6.236;2023-04-25T09:28:05;9.80;99.90
56727;DHT22;42609;52.700;6.236;2023-04-25T09:30:33;9.80;99.90
56727;DHT22;42609;52.700;6.236;2023-04-25T09:33:05;9.90;99.90
56727;DHT22;42609;52.700;6.236;2023-04-25T09:35:42;9.90;99.90
56727;DHT22;42609;52.700;6.236;2023-04-25T09:38:12;9.90;99.90
56727;DHT22;42609;52.700;6.236;2023-04-25T09:40:42;10.10;99.90
56727;DHT22;42609;52.700;6.236;2023-04-25T09:43:19;10.20;99.90
56727;DHT22;42609;52.700;6.236;2023-04-25T09:45:45;10.30;99.90
56727;DHT22;42609;52.700;6.236;2023-04-25T09:48:20;10.40;99.90
56727;DHT22;42609;52.700;6.236;2023-04-25T09:53:35;10.40;99.90
56727;DHT22;42609;52.700;6.236;2023-04-25T09:56:03;10.50;99.90
56727;DHT22;42609;52.700;6.236;2023-04-25T09:58:31;10.60;99.90
56727;DHT22;42609;52.700;6.236;2023-04-25T10:01:00;10.70;99.90
56727;DHT22;42609;52.700;6.236;2023-04-25T10:03:30;10.80;99.90
56727;DHT22;42609;52.700;6.236;2023-04-25T10:05:58;10.90;99.90
56727;DHT22;42609;52.700;6.236;2023-04-25T10:08:26;11.10;99.90
56727;DHT22;42609;52.700;6.236;2023-04-25T10:10:53;11.20;99.90
56727;DHT22;42609;52.700;6.236;2023-04-25T10:13:19;11.40;99.90
56727;DHT22;42609;52.700;6.236;2023-04-25T10:15:45;11.40;99.10
56727;DHT22;42609;52.700;6.236;2023-04-25T10:18:12;11.20;99.50
56727;DHT22;42609;52.700;6.236;2023-04-25T10:20:38;11.00;99.50
56727;DHT22;42609;52.700;6.236;2023-04-25T10:23:12;10.90;99.90
56727;DHT22;42609;52.700;6.236;2023-04-25T10:25:39;10.60;99.90
56727;DHT22;42609;52.700;6.236;2023-04-25T10:28:05;10.30;99.90
56727;DHT22;42609;52.700;6.236;2023-04-25T10:30:31;10.10;99.90
56727;DHT22;42609;52.700;6.236;2023-04-25T10:32:58;9.90;99.90
56727;DHT22;42609;52.700;6.236;2023-04-25T10:35:27;10.00;99.90
56727;DHT22;42609;52.700;6.236;2023-04-25T10:38:04;9.80;99.90
56727;DHT22;42609;52.700;6.236;2023-04-25T10:40:33;9.70;99.90
56727;DHT22;42609;52.700;6.236;2023-04-25T10:48:46;9.80;99.90
56727;DHT22;42609;52.700;6.236;2023-04-25T10:51:27;9.80;99.90
56727;DHT22;42609;52.700;6.236;2023-04-25T10:54:04;9.80;99.90
56727;DHT22;42609;52.700;6.236;2023-04-25T10:56:32;9.90;99.90
56727;DHT22;42609;52.700;6.236;2023-04-25T10:59:14;9.90;99.90
56727;DHT22;42609;52.700;6.236;2023-04-25T11:02:02;10.00;99.90
56727;DHT22;42609;52.700;6.236;2023-04-25T11:04:33;10.00;99.90
56727;DHT22;42609;52.700;6.236;2023-04-25T11:07:10;9.80;99.90
56727;DHT22;42609;52.700;6.236;2023-04-25T11:09:39;9.90;99.90
56727;DHT22;42609;52.700;6.236;2023-04-25T11:12:07;9.80;99.90
56727;DHT22;42609;52.700;6.236;2023-04-25T11:14:33;9.90;99.90
56727;DHT22;42609;52.700;6.236;2023-04-25T11:16:59;9.90;99.90
56727;DHT22;42609;52.700;6.236;2023-04-25T11:19:28;10.00;99.90
56727;DHT22;42609;52.700;6.236;2023-04-25T11:21:58;10.20;99.90
56727;DHT22;42609;52.700;6.236;2023-04-25T11:24:32;10.30;99.90
56727;DHT22;42609;52.700;6.236;2023-04-25T11:26:59;10.60;99.90
56727;DHT22;42609;52.700;6.236;2023-04-25T11:29:34;10.90;99.90
56727;DHT22;42609;52.700;6.236;2023-04-25T11:32:00;10.90;99.90
56727;DHT22;42609;52.700;6.236;2023-04-25T11:34:27;11.00;99.90
56727;DHT22;42609;52.700;6.236;2023-04-25T11:36:56;11.20;99.90
56727;DHT22;42609;52.700;6.236;2023-04-25T11:39:24;11.40;99.90
56727;DHT22;42609;52.700;6.236;2023-04-25T11:41:50;11.60;99.90
56727;DHT22;42609;52.700;6.236;2023-04-25T11:44:16;11.60;99.90
56727;DHT22;42609;52.700;6.236;2023-04-25T11:46:43;11.70;99.90
56727;DHT22;42609;52.700;6.236;2023-04-25T11:49:09;11.50;99.90
56727;DHT22;42609;52.700;6.236;2023-04-25T11:51:42;11.40;99.90
56727;DHT22;42609;52.700;6.236;2023-04-25T11:54:08;11.50;99.90
56727;DHT22;42609;52.700;6.236;2023-04-25T11:56:34;11.90;99.90
56727;DHT22;42609;52.700;6.236;2023-04-25T11:59:02;11.80;99.60
56727;DHT22;42609;52.700;6.236;2023-04-25T12:01:36;11.80;97.70
56727;DHT22;42609;52.700;6.236;2023-04-25T12:04:19;11.10;99.90
56727;DHT22;42609;52.700;6.236;2023-04-25T12:06:46;10.50;99.90
56727;DHT22;42609;52.700;6.236;2023-04-25T12:09:17;10.40;99.90
56727;DHT22;42609;52.700;6.236;2023-04-25T12:11:45;10.20;99.90
56727;DHT22;42609;52.700;6.236;2023-04-25T12:14:12;10.10;99.90
56727;DHT22;42609;52.700;6.236;2023-04-25T12:16:46;10.40;99.90
56727;DHT22;42609;52.700;6.236;2023-04-25T12:19:16;10.50;99.90
56727;DHT22;42609;52.700;6.236;2023-04-25T12:21:43;10.70;99.90
56727;DHT22;42609;52.700;6.236;2023-04-25T12:24:13;11.20;99.90
56727;DHT22;42609;52.700;6.236;2023-04-25T12:27:06;11.30;99.90
56727;DHT22;42609;52.700;6.236;2023-04-25T12:29:34;11.00;99.90
56727;DHT22;42609;52.700;6.236;2023-04-25T12:32:00;10.80;99.90
56727;DHT22;42609;52.700;6.236;2023-04-25T12:34:27;10.30;99.90
56727;DHT22;42609;52.700;6.236;2023-04-25T12:36:53;10.20;99.90
56727;DHT22;42609;52.700;6.236;2023-04-25T12:39:21;10.10;99.90
56727;DHT22;42609;52.700;6.236;2023-04-25T12:41:51;10.10;99.90
56727;DHT22;42609;52.700;6.236;2023-04-25T12:44:19;10.10;99.90
56727;DHT22;42609;52.700;6.236;2023-04-25T12:46:45;10.10;99.90
56727;DHT22;42609;52.700;6.236;2023-04-25T12:49:10;10.10;99.90
56727;DHT22;42609;52.700;6.236;2023-04-25T12:51:37;10.20;99.90
56727;DHT22;42609;52.700;6.236;2023-04-25T12:54:04;10.30;99.90
56727;DHT22;42609;52.700;6.236;2023-04-25T12:56:30;10.30;99.90
56727;DHT22;42609;52.700;6.236;2023-04-25T12:58:56;10.50;99.90
56727;DHT22;42609;52.700;6.236;2023-04-25T13:01:23;10.70;99.90
56727;DHT22;42609;52.700;6.236;2023-04-25T13:03:48;10.80;99.90
56727;DHT22;42609;52.700;6.236;2023-04-25T13:06:15;11.00;99.90
56727;DHT22;42609;52.700;6.236;2023-04-25T13:08:41;11.30;99.90
56727;DHT22;42609;52.700;6.236;2023-04-25T13:11:07;11.40;99.90
56727;DHT22;42609;52.700;6.236;2023-04-25T13:13:33;11.40;99.90
56727;DHT22;42609;52.700;6.236;2023-04-25T13:16:00;11.20;99.90
56727;DHT22;42609;52.700;6.236;2023-04-25T13:18:28;10.90;99.90
56727;DHT22;42609;52.700;6.236;2023-04-25T13:20:53;10.60;99.90
56727;DHT22;42609;52.700;6.236;2023-04-25T13:23:19;10.60;99.90
56727;DHT22;42609;52.700;6.236;2023-04-25T13:25:46;10.50;99.90
56727;DHT22;42609;52.700;6.236;2023-04-25T13:28:12;10.60;99.90
56727;DHT22;42609;52.700;6.236;2023-04-25T13:30:38;10.70;99.90
56727;DHT22;42609;52.700;6.236;2023-04-25T13:33:03;10.80;99.90
56727;DHT22;42609;52.700;6.236;2023-04-25T13:35:30;10.70;99.90
56727;DHT22;42609;52.700;6.236;2023-04-25T13:37:56;10.70;99.90
56727;DHT22;42609;52.700;6.236;2023-04-25T13:40:22;10.80;99.90
56727;DHT22;42609;52.700;6.236;2023-04-25T13:42:48;10.80;99.90
56727;DHT22;42609;52.700;6.236;2023-04-25T13:45:13;10.50;99.90
56727;DHT22;42609;52.700;6.236;2023-04-25T13:47:39;10.50;99.90
56727;DHT22;42609;52.700;6.236;2023-04-25T13:50:05;10.70;99.90
56727;DHT22;42609;52.700;6.236;2023-04-25T13:52:31;10.70;99.90
56727;DHT22;42609;52.700;6.236;2023-04-25T13:54:57;10.60;99.90
56727;DHT22;42609;52.700;6.236;2023-04-25T13:57:23;10.60;99.90
56727;DHT22;42609;52.700;6.236;2023-04-25T13:59:50;10.70;99.90
56727;DHT22;42609;52.700;6.236;2023-04-25T14:02:16;10.60;99.90
56727;DHT22;42609;52.700;6.236;2023-04-25T14:04:42;10.50;99.90
56727;DHT22;42609;52.700;6.236;2023-04-25T14:07:07;10.50;99.90
56727;DHT22;42609;52.700;6.236;2023-04-25T14:09:34;10.50;99.90
56727;DHT22;42609;52.700;6.236;2023-04-25T14:11:59;10.50;99.90
56727;DHT22;42609;52.700;6.236;2023-04-25T14:14:26;10.70;99.90
56727;DHT22;42609;52.700;6.236;2023-04-25T14:16:52;10.50;99.90
56727;DHT22;42609;52.700;6.236;2023-04-25T14:19:20;10.40;99.90
56727;DHT22;42609;52.700;6.236;2023-04-25T14:21:46;10.50;99.90
56727;DHT22;42609;52.700;6.236;2023-04-25T14:24:13;10.50;99.90
56727;DHT22;42609;52.700;6.236;2023-04-25T14:26:39;10.50;99.90
56727;DHT22;42609;52.700;6.236;2023-04-25T14:29:05;10.40;99.90
56727;DHT22;42609;52.700;6.236;2023-04-25T14:31:32;10.20;99.90
56727;DHT22;42609;52.700;6.236;2023-04-25T14:33:58;10.40;99.90
56727;DHT22;42609;52.700;6.236;2023-04-25T14:36:24;10.60;99.90
56727;DHT22;42609;52.700;6.236;2023-04-25T14:38:49;10.60;99.90
56727;DHT22;42609;52.700;6.236;2023-04-25T14:41:15;10.80;99.90
56727;DHT22;42609;52.700;6.236;2023-04-25T14:43:40;11.00;99.90
56727;DHT22;42609;52.700;6.236;2023-04-25T14:46:07;11.10;99.90
56727;DHT22;42609;52.700;6.236;2023-04-25T14:48:33;11.10;99.90
56727;DHT22;42609;52.700;6.236;2023-04-25T14:50:59;11.00;99.90
56727;DHT22;42609;52.700;6.236;2023-04-25T14:53:26;11.00;99.90
56727;DHT22;42609;52.700;6.236;2023-04-25T14:55:52;11.00;99.90
56727;DHT22;42609;52.700;6.236;2023-04-25T14:58:17;10.90;99.90
56727;DHT22;42609;52.700;6.236;2023-04-25T15:00:43;10.40;99.90
56727;DHT22;42609;52.700;6.236;2023-04-25T15:03:09;10.20;99.90
56727;DHT22;42609;52.700;6.236;2023-04-25T15:05:38;10.00;99.90
56727;DHT22;42609;52.700;6.236;2023-04-25T15:08:04;9.90;99.90
56727;DHT22;42609;52.700;6.236;2023-04-25T15:10:30;10.20;99.90
56727;DHT22;42609;52.700;6.236;2023-04-25T15:12:55;10.50;99.90
56727;DHT22;42609;52.700;6.236;2023-04-25T15:15:21;10.70;99.90
56727;DHT22;42609;52.700;6.236;2023-04-25T15:17:48;10.70;99.90
56727;DHT22;42609;52.700;6.236;2023-04-25T15:20:13;10.70;99.90
56727;DHT22;42609;52.700;6.236;2023-04-25T15:22:41;10.80;99.90
56727;DHT22;42609;52.700;6.236;2023-04-25T15:25:08;10.90;99.90
56727;DHT22;42609;52.700;6.236;2023-04-25T15:27:35;10.80;99.90
56727;DHT22;42609;52.700;6.236;2023-04-25T15:30:06;10.90;99.90
56727;DHT22;42609;52.700;6.236;2023-04-25T15:32:33;10.80;99.90
56727;DHT22;42609;52.700;6.236;2023-04-25T15:35:02;10.50;99.90
56727;DHT22;42609;52.700;6.236;2023-04-25T15:37:28;10.40;99.90
56727;DHT22;42609;52.700;6.236;2023-04-25T15:40:14;10.20;99.90
56727;DHT22;42609;52.700;6.236;2023-04-25T15:42:41;10.30;99.90
56727;DHT22;42609;52.700;6.236;2023-04-25T15:45:09;10.40;99.90
56727;DHT22;42609;52.700;6.236;2023-04-25T15:47:36;10.70;99.90
56727;DHT22;42609;52.700;6.236;2023-04-25T15:50:03;10.90;99.90